sensor_id;sensor_type;location;lat;lon;timestamp;temperature;humidity
15969;DHT22;8085;53.472;9.794;2023-12-07T00:01:07;0.70;99.90
15969;DHT22;8085;53.472;9.794;2023-12-07T00:03:34;0.70;99.90
15969;DHT22;8085;53.472;9.794;2023-12-07T00:06:01;0.70;99.90
15969;DHT22;8085;53.472;9.794;2023-12-07T00:08:29;0.70;99.90
15969;DHT22;8085;53.472;9.794;2023-12-07T00:10:56;0.70;99.90
15969;DHT22;8085;53.472;9.794;2023-12-07T00:13:23;0.70;99.90
15969;DHT22;8085;53.472;9.794;2023-12-07T00:15:50;0.70;99.90
15969;DHT22;8085;53.472;9.794;2023-12-07T00:18:17;0.70;99.90
15969;DHT22;8085;53.472;9.794;2023-12-07T00:20:44;0.70;99.90
15969;DHT22;8085;53.472;9.794;2023-12-07T00:23:10;0.70;99.90
15969;DHT22;8085;53.472;9.794;2023-12-07T00:25:39;0.70;99.90
15969;DHT22;8085;53.472;9.794;2023-12-07T00:28:06;0.70;99.90
15969;DHT22;8085;53.472;9.794;2023-12-07T00:30:32;0.70;99.90
15969;DHT22;8085;53.472;9.794;2023-12-07T00:33:01;0.70;99.90
15969;DHT22;8085;53.472;9.794;2023-12-07T00:35:28;0.70;99.90
15969;DHT22;8085;53.472;9.794;2023-12-07T00:37:55;0.70;99.90
15969;DHT22;8085;53.472;9.794;2023-12-07T00:40:22;0.60;99.90
15969;DHT22;8085;53.472;9.794;2023-12-07T00:42:51;0.60;99.90
15969;DHT22;8085;53.472;9.794;2023-12-07T00:45:18;0.70;99.90
15969;DHT22;8085;53.472;9.794;2023-12-07T00:47:45;0.60;99.90
15969;DHT22;8085;53.472;9.794;2023-12-07T00:50:12;0.70;99.90
15969;DHT22;8085;53.472;9.794;2023-12-07T00:52:40;0.60;99.90
15969;DHT22;8085;53.472;9.794;2023-12-07T00:55:08;0.70;99.90
15969;DHT22;8085;53.472;9.794;2023-12-07T00:57:34;0.70;99.90
15969;DHT22;8085;53.472;9.794;2023-12-07T01:00:05;0.70;99.90
15969;DHT22;8085;53.472;9.794;2023-12-07T01:02:32;0.60;99.90
15969;DHT22;8085;53.472;9.794;2023-12-07T01:04:59;0.70;99.90
15969;DHT22;8085;53.472;9.794;2023-12-07T01:07:26;0.70;99.90
15969;DHT22;8085;53.472;9.794;2023-12-07T01:09:52;0.70;99.90
15969;DHT22;8085;53.472;9.794;2023-12-07T01:12:19;0.70;99.90
15969;DHT22;8085;53.472;9.794;2023-12-07T01:14:46;0.70;99.90
15969;DHT22;8085;53.472;9.794;2023-12-07T01:17:14;0.70;99.90
15969;DHT22;8085;53.472;9.794;2023-12-07T01:19:41;0.70;99.90
15969;DHT22;8085;53.472;9.794;2023-12-07T01:22:08;0.70;99.90
15969;DHT22;8085;53.472;9.794;2023-12-07T01:24:35;0.70;99.90
15969;DHT22;8085;53.472;9.794;2023-12-07T01:27:02;0.70;99.90
15969;DHT22;8085;53.472;9.794;2023-12-07T01:29:28;0.70;99.90
15969;DHT22;8085;53.472;9.794;2023-12-07T01:31:55;0.70;99.90
15969;DHT22;8085;53.472;9.794;2023-12-07T01:34:23;0.70;99.90
15969;DHT22;8085;53.472;9.794;2023-12-07T01:36:50;0.70;99.90
15969;DHT22;8085;53.472;9.794;2023-12-07T01:39:17;0.70;99.90
15969;DHT22;8085;53.472;9.794;2023-12-07T01:41:44;0.70;99.90
15969;DHT22;8085;53.472;9.794;2023-12-07T01:44:11;0.70;99.90
15969;DHT22;8085;53.472;9.794;2023-12-07T01:46:38;0.70;99.90
15969;DHT22;8085;53.472;9.794;2023-12-07T01:49:05;0.70;99.90
15969;DHT22;8085;53.472;9.794;2023-12-07T01:51:33;0.70;99.90
15969;DHT22;8085;53.472;9.794;2023-12-07T01:54:01;0.70;99.90
15969;DHT22;8085;53.472;9.794;2023-12-07T01:56:31;0.70;99.90
15969;DHT22;8085;53.472;9.794;2023-12-07T01:59:03;0.70;99.90
15969;DHT22;8085;53.472;9.794;2023-12-07T02:01:32;0.70;99.90
15969;DHT22;8085;53.472;9.794;2023-12-07T02:03:59;0.80;99.90
15969;DHT22;8085;53.472;9.794;2023-12-07T02:06:26;0.70;99.90
15969;DHT22;8085;53.472;9.794;2023-12-07T02:08:55;0.70;99.90
15969;DHT22;8085;53.472;9.794;2023-12-07T02:11:22;0.70;99.90
15969;DHT22;8085;53.472;9.794;2023-12-07T02:13:50;0.70;99.90
15969;DHT22;8085;53.472;9.794;2023-12-07T02:16:29;0.70;99.90
15969;DHT22;8085;53.472;9.794;2023-12-07T02:19:03;0.70;99.90
15969;DHT22;8085;53.472;9.794;2023-12-07T02:21:40;0.70;99.90
15969;DHT22;8085;53.472;9.794;2023-12-07T02:24:19;0.80;99.90
15969;DHT22;8085;53.472;9.794;2023-12-07T02:26:49;0.80;99.90
15969;DHT22;8085;53.472;9.794;2023-12-07T02:29:16;0.80;99.90
15969;DHT22;8085;53.472;9.794;2023-12-07T02:31:43;0.90;99.90
15969;DHT22;8085;53.472;9.794;2023-12-07T02:34:12;0.80;99.90
15969;DHT22;8085;53.472;9.794;2023-12-07T02:36:42;0.80;99.90
15969;DHT22;8085;53.472;9.794;2023-12-07T02:39:11;0.80;99.90
15969;DHT22;8085;53.472;9.794;2023-12-07T02:41:40;0.80;99.90
15969;DHT22;8085;53.472;9.794;2023-12-07T02:44:09;0.80;99.90
15969;DHT22;8085;53.472;9.794;2023-12-07T02:46:36;0.80;99.90
15969;DHT22;8085;53.472;9.794;2023-12-07T02:49:04;0.80;99.90
15969;DHT22;8085;53.472;9.794;2023-12-07T02:51:32;0.80;99.90
15969;DHT22;8085;53.472;9.794;2023-12-07T02:53:59;0.80;99.90
15969;DHT22;8085;53.472;9.794;2023-12-07T02:56:30;0.80;99.90
15969;DHT22;8085;53.472;9.794;2023-12-07T02:58:57;0.80;99.90
15969;DHT22;8085;53.472;9.794;2023-12-07T03:01:28;0.90;99.90
15969;DHT22;8085;53.472;9.794;2023-12-07T03:03:55;0.80;99.90
15969;DHT22;8085;53.472;9.794;2023-12-07T03:06:22;0.80;99.90
15969;DHT22;8085;53.472;9.794;2023-12-07T03:08:49;0.90;99.90
15969;DHT22;8085;53.472;9.794;2023-12-07T03:11:16;0.90;99.90
15969;DHT22;8085;53.472;9.794;2023-12-07T03:13:43;0.80;99.90
15969;DHT22;8085;53.472;9.794;2023-12-07T03:16:12;0.80;99.90
15969;DHT22;8085;53.472;9.794;2023-12-07T03:18:40;0.80;99.90
15969;DHT22;8085;53.472;9.794;2023-12-07T03:21:07;0.90;99.90
15969;DHT22;8085;53.472;9.794;2023-12-07T03:23:35;0.90;99.90
15969;DHT22;8085;53.472;9.794;2023-12-07T03:26:02;0.90;99.90
15969;DHT22;8085;53.472;9.794;2023-12-07T03:28:35;0.90;99.90
15969;DHT22;8085;53.472;9.794;2023-12-07T03:31:03;0.80;99.90
15969;DHT22;8085;53.472;9.794;2023-12-07T03:33:33;0.90;99.90
15969;DHT22;8085;53.472;9.794;2023-12-07T03:36:01;0.90;99.90
15969;DHT22;8085;53.472;9.794;2023-12-07T03:38:29;1.00;99.90
15969;DHT22;8085;53.472;9.794;2023-12-07T03:40:56;0.90;99.90
15969;DHT22;8085;53.472;9.794;2023-12-07T03:43:22;0.90;99.90
15969;DHT22;8085;53.472;9.794;2023-12-07T03:45:49;0.90;99.90
15969;DHT22;8085;53.472;9.794;2023-12-07T03:48:17;0.90;99.90
15969;DHT22;8085;53.472;9.794;2023-12-07T03:50:44;0.90;99.90
15969;DHT22;8085;53.472;9.794;2023-12-07T03:53:15;1.00;99.90
15969;DHT22;8085;53.472;9.794;2023-12-07T03:55:42;1.00;99.90
15969;DHT22;8085;53.472;9.794;2023-12-07T03:58:09;1.00;99.90
15969;DHT22;8085;53.472;9.794;2023-12-07T04:00:36;1.00;99.90
15969;DHT22;8085;53.472;9.794;2023-12-07T04:03:03;0.90;99.90
15969;DHT22;8085;53.472;9.794;2023-12-07T04:05:30;1.00;99.90
15969;DHT22;8085;53.472;9.794;2023-12-07T04:08:00;1.00;99.90
15969;DHT22;8085;53.472;9.794;2023-12-07T04:10:28;1.00;99.90
15969;DHT22;8085;53.472;9.794;2023-12-07T04:12:55;1.20;99.90
15969;DHT22;8085;53.472;9.794;2023-12-07T04:15:22;1.00;99.90
15969;DHT22;8085;53.472;9.794;2023-12-07T04:17:52;1.20;99.90
15969;DHT22;8085;53.472;9.794;2023-12-07T04:20:21;1.20;99.90
15969;DHT22;8085;53.472;9.794;2023-12-07T04:22:48;1.10;99.90
15969;DHT22;8085;53.472;9.794;2023-12-07T04:25:17;1.10;99.90
15969;DHT22;8085;53.472;9.794;2023-12-07T04:27:46;1.20;99.90
15969;DHT22;8085;53.472;9.794;2023-12-07T04:30:13;1.20;99.90
15969;DHT22;8085;53.472;9.794;2023-12-07T04:32:41;1.10;99.90
15969;DHT22;8085;53.472;9.794;2023-12-07T04:35:11;1.10;99.90
15969;DHT22;8085;53.472;9.794;2023-12-07T04:37:38;1.10;99.90
15969;DHT22;8085;53.472;9.794;2023-12-07T04:40:06;1.20;99.90
15969;DHT22;8085;53.472;9.794;2023-12-07T04:42:35;1.20;99.90
15969;DHT22;8085;53.472;9.794;2023-12-07T04:45:08;1.20;99.90
15969;DHT22;8085;53.472;9.794;2023-12-07T04:47:35;1.20;99.90
15969;DHT22;8085;53.472;9.794;2023-12-07T04:50:04;1.20;99.90
15969;DHT22;8085;53.472;9.794;2023-12-07T04:52:35;1.20;99.90
15969;DHT22;8085;53.472;9.794;2023-12-07T04:55:03;1.20;99.90
15969;DHT22;8085;53.472;9.794;2023-12-07T04:57:31;1.20;99.90
15969;DHT22;8085;53.472;9.794;2023-12-07T04:59:58;1.20;99.90
15969;DHT22;8085;53.472;9.794;2023-12-07T05:02:27;1.30;99.90
15969;DHT22;8085;53.472;9.794;2023-12-07T05:04:54;1.30;99.90
15969;DHT22;8085;53.472;9.794;2023-12-07T05:07:21;1.30;99.90
15969;DHT22;8085;53.472;9.794;2023-12-07T05:09:50;1.30;99.90
15969;DHT22;8085;53.472;9.794;2023-12-07T05:12:17;1.30;99.90
15969;DHT22;8085;53.472;9.794;2023-12-07T05:14:44;1.20;99.90
15969;DHT22;8085;53.472;9.794;2023-12-07T05:17:16;1.20;99.90
15969;DHT22;8085;53.472;9.794;2023-12-07T05:19:45;1.20;99.90
15969;DHT22;8085;53.472;9.794;2023-12-07T05:22:14;1.20;99.90
15969;DHT22;8085;53.472;9.794;2023-12-07T05:24:43;1.20;99.90
15969;DHT22;8085;53.472;9.794;2023-12-07T05:27:10;1.20;99.90
15969;DHT22;8085;53.472;9.794;2023-12-07T05:29:37;1.20;99.90
15969;DHT22;8085;53.472;9.794;2023-12-07T05:32:05;1.10;99.90
15969;DHT22;8085;53.472;9.794;2023-12-07T05:34:32;1.20;99.90
15969;DHT22;8085;53.472;9.794;2023-12-07T05:37:02;1.10;99.90
15969;DHT22;8085;53.472;9.794;2023-12-07T05:39:30;1.20;99.90
15969;DHT22;8085;53.472;9.794;2023-12-07T05:41:59;1.20;99.90
15969;DHT22;8085;53.472;9.794;2023-12-07T05:44:26;1.20;99.90
15969;DHT22;8085;53.472;9.794;2023-12-07T05:46:53;1.20;99.90
15969;DHT22;8085;53.472;9.794;2023-12-07T05:49:20;1.40;99.90
15969;DHT22;8085;53.472;9.794;2023-12-07T05:51:48;1.40;99.90
15969;DHT22;8085;53.472;9.794;2023-12-07T05:54:16;1.30;99.90
15969;DHT22;8085;53.472;9.794;2023-12-07T05:56:47;1.30;99.90
15969;DHT22;8085;53.472;9.794;2023-12-07T05:59:15;1.30;99.90
15969;DHT22;8085;53.472;9.794;2023-12-07T06:01:42;1.30;99.90
15969;DHT22;8085;53.472;9.794;2023-12-07T06:04:10;1.30;99.90
15969;DHT22;8085;53.472;9.794;2023-12-07T06:06:38;1.20;99.90
15969;DHT22;8085;53.472;9.794;2023-12-07T06:09:05;1.30;99.90
15969;DHT22;8085;53.472;9.794;2023-12-07T06:11:34;1.30;99.90
15969;DHT22;8085;53.472;9.794;2023-12-07T06:14:01;1.30;99.90
15969;DHT22;8085;53.472;9.794;2023-12-07T06:16:30;1.30;99.90
15969;DHT22;8085;53.472;9.794;2023-12-07T06:18:57;1.30;99.90
15969;DHT22;8085;53.472;9.794;2023-12-07T06:21:24;1.30;99.90
15969;DHT22;8085;53.472;9.794;2023-12-07T06:23:54;1.20;99.90
15969;DHT22;8085;53.472;9.794;2023-12-07T06:26:24;1.20;99.90
15969;DHT22;8085;53.472;9.794;2023-12-07T06:28:54;1.20;99.90
15969;DHT22;8085;53.472;9.794;2023-12-07T06:31:21;1.20;99.90
15969;DHT22;8085;53.472;9.794;2023-12-07T06:33:48;1.20;99.90
15969;DHT22;8085;53.472;9.794;2023-12-07T06:36:20;1.20;99.90
15969;DHT22;8085;53.472;9.794;2023-12-07T06:38:50;1.30;99.90
15969;DHT22;8085;53.472;9.794;2023-12-07T06:41:19;1.30;99.90
15969;DHT22;8085;53.472;9.794;2023-12-07T06:43:46;1.20;99.90
15969;DHT22;8085;53.472;9.794;2023-12-07T06:46:15;1.30;99.90
15969;DHT22;8085;53.472;9.794;2023-12-07T06:48:42;1.30;99.90
15969;DHT22;8085;53.472;9.794;2023-12-07T06:51:12;1.30;99.90
15969;DHT22;8085;53.472;9.794;2023-12-07T06:53:40;1.20;99.90
15969;DHT22;8085;53.472;9.794;2023-12-07T06:56:09;1.20;99.90
15969;DHT22;8085;53.472;9.794;2023-12-07T06:58:41;1.20;99.90
15969;DHT22;8085;53.472;9.794;2023-12-07T07:01:08;1.30;99.90
15969;DHT22;8085;53.472;9.794;2023-12-07T07:03:39;1.30;99.90
15969;DHT22;8085;53.472;9.794;2023-12-07T07:06:09;1.30;99.90
15969;DHT22;8085;53.472;9.794;2023-12-07T07:08:36;1.30;99.90
15969;DHT22;8085;53.472;9.794;2023-12-07T07:11:14;1.30;99.90
15969;DHT22;8085;53.472;9.794;2023-12-07T07:13:47;1.30;99.90
15969;DHT22;8085;53.472;9.794;2023-12-07T07:16:16;1.30;99.90
15969;DHT22;8085;53.472;9.794;2023-12-07T07:18:44;1.30;99.90
15969;DHT22;8085;53.472;9.794;2023-12-07T07:21:12;1.30;99.90
15969;DHT22;8085;53.472;9.794;2023-12-07T07:23:38;1.30;99.90
15969;DHT22;8085;53.472;9.794;2023-12-07T07:26:05;1.20;99.90
15969;DHT22;8085;53.472;9.794;2023-12-07T07:28:34;1.20;99.90
15969;DHT22;8085;53.472;9.794;2023-12-07T07:31:01;1.20;99.90
15969;DHT22;8085;53.472;9.794;2023-12-07T07:33:29;1.20;99.90
15969;DHT22;8085;53.472;9.794;2023-12-07T07:35:57;1.20;99.90
15969;DHT22;8085;53.472;9.794;2023-12-07T07:38:24;1.20;99.90
15969;DHT22;8085;53.472;9.794;2023-12-07T07:40:51;1.10;99.90
15969;DHT22;8085;53.472;9.794;2023-12-07T07:43:18;1.10;99.90
15969;DHT22;8085;53.472;9.794;2023-12-07T07:45:45;1.20;99.90
15969;DHT22;8085;53.472;9.794;2023-12-07T07:48:12;1.20;99.90
15969;DHT22;8085;53.472;9.794;2023-12-07T07:50:39;1.20;99.90
15969;DHT22;8085;53.472;9.794;2023-12-07T07:53:07;1.20;99.90
15969;DHT22;8085;53.472;9.794;2023-12-07T07:55:34;1.10;99.90
15969;DHT22;8085;53.472;9.794;2023-12-07T07:58:01;1.10;99.90
15969;DHT22;8085;53.472;9.794;2023-12-07T08:00:28;1.10;99.90
15969;DHT22;8085;53.472;9.794;2023-12-07T08:02:56;1.10;99.90
15969;DHT22;8085;53.472;9.794;2023-12-07T08:05:23;1.10;99.90
15969;DHT22;8085;53.472;9.794;2023-12-07T08:07:50;1.10;99.90
15969;DHT22;8085;53.472;9.794;2023-12-07T08:10:18;1.10;99.90
15969;DHT22;8085;53.472;9.794;2023-12-07T08:12:46;1.10;99.90
15969;DHT22;8085;53.472;9.794;2023-12-07T08:15:13;1.10;99.90
15969;DHT22;8085;53.472;9.794;2023-12-07T08:17:40;1.10;99.90
15969;DHT22;8085;53.472;9.794;2023-12-07T08:20:08;1.10;99.90
15969;DHT22;8085;53.472;9.794;2023-12-07T08:22:39;1.10;99.90
15969;DHT22;8085;53.472;9.794;2023-12-07T08:25:07;1.10;99.90
15969;DHT22;8085;53.472;9.794;2023-12-07T08:27:36;1.10;99.90
15969;DHT22;8085;53.472;9.794;2023-12-07T08:30:05;1.10;99.90
15969;DHT22;8085;53.472;9.794;2023-12-07T08:32:44;1.10;99.90
15969;DHT22;8085;53.472;9.794;2023-12-07T08:35:11;1.20;99.90
15969;DHT22;8085;53.472;9.794;2023-12-07T08:37:38;1.20;99.90
15969;DHT22;8085;53.472;9.794;2023-12-07T08:40:06;1.20;99.90
15969;DHT22;8085;53.472;9.794;2023-12-07T08:42:36;1.20;99.90
15969;DHT22;8085;53.472;9.794;2023-12-07T08:45:04;1.20;99.90
15969;DHT22;8085;53.472;9.794;2023-12-07T08:47:31;1.20;99.90
15969;DHT22;8085;53.472;9.794;2023-12-07T08:49:58;1.20;99.90
15969;DHT22;8085;53.472;9.794;2023-12-07T08:52:25;1.20;99.90
15969;DHT22;8085;53.472;9.794;2023-12-07T08:54:52;1.20;99.90
15969;DHT22;8085;53.472;9.794;2023-12-07T08:57:19;1.20;99.90
15969;DHT22;8085;53.472;9.794;2023-12-07T08:59:48;1.20;99.90
15969;DHT22;8085;53.472;9.794;2023-12-07T09:02:14;1.20;99.90
15969;DHT22;8085;53.472;9.794;2023-12-07T09:04:41;1.20;99.90
15969;DHT22;8085;53.472;9.794;2023-12-07T09:07:08;1.30;99.90
15969;DHT22;8085;53.472;9.794;2023-12-07T09:09:36;1.20;99.90
15969;DHT22;8085;53.472;9.794;2023-12-07T09:12:04;1.20;99.90
15969;DHT22;8085;53.472;9.794;2023-12-07T09:14:31;1.20;99.90
15969;DHT22;8085;53.472;9.794;2023-12-07T09:16:59;1.20;99.90
15969;DHT22;8085;53.472;9.794;2023-12-07T09:19:26;1.20;99.90
15969;DHT22;8085;53.472;9.794;2023-12-07T09:21:52;1.20;99.90
15969;DHT22;8085;53.472;9.794;2023-12-07T09:24:20;1.20;99.90
15969;DHT22;8085;53.472;9.794;2023-12-07T09:26:47;1.20;99.90
15969;DHT22;8085;53.472;9.794;2023-12-07T09:29:14;1.20;99.90
15969;DHT22;8085;53.472;9.794;2023-12-07T09:31:41;1.20;99.90
15969;DHT22;8085;53.472;9.794;2023-12-07T09:34:09;1.20;99.90
15969;DHT22;8085;53.472;9.794;2023-12-07T09:36:38;1.20;99.90
15969;DHT22;8085;53.472;9.794;2023-12-07T09:39:04;1.20;99.90
15969;DHT22;8085;53.472;9.794;2023-12-07T09:41:31;1.20;99.90
15969;DHT22;8085;53.472;9.794;2023-12-07T09:43:58;1.20;99.90
15969;DHT22;8085;53.472;9.794;2023-12-07T09:46:27;1.20;99.90
15969;DHT22;8085;53.472;9.794;2023-12-07T09:48:55;1.20;99.90
15969;DHT22;8085;53.472;9.794;2023-12-07T09:51:23;1.20;99.90
15969;DHT22;8085;53.472;9.794;2023-12-07T09:53:52;1.10;99.90
15969;DHT22;8085;53.472;9.794;2023-12-07T09:56:20;1.10;99.90
15969;DHT22;8085;53.472;9.794;2023-12-07T09:58:46;1.00;99.90
15969;DHT22;8085;53.472;9.794;2023-12-07T10:01:13;1.20;99.90
15969;DHT22;8085;53.472;9.794;2023-12-07T10:03:40;1.20;99.90
15969;DHT22;8085;53.472;9.794;2023-12-07T10:06:08;1.10;99.90
15969;DHT22;8085;53.472;9.794;2023-12-07T10:08:36;1.10;99.90
15969;DHT22;8085;53.472;9.794;2023-12-07T10:11:06;1.10;99.90
15969;DHT22;8085;53.472;9.794;2023-12-07T10:13:33;1.30;99.90
15969;DHT22;8085;53.472;9.794;2023-12-07T10:16:08;1.10;99.90
15969;DHT22;8085;53.472;9.794;2023-12-07T10:18:36;1.20;99.90
15969;DHT22;8085;53.472;9.794;2023-12-07T10:21:03;1.20;99.90
15969;DHT22;8085;53.472;9.794;2023-12-07T10:23:30;1.30;99.90
15969;DHT22;8085;53.472;9.794;2023-12-07T10:25:59;1.30;99.90
15969;DHT22;8085;53.472;9.794;2023-12-07T10:28:26;1.30;99.90
15969;DHT22;8085;53.472;9.794;2023-12-07T10:30:53;1.40;99.90
15969;DHT22;8085;53.472;9.794;2023-12-07T10:33:20;1.30;99.90
15969;DHT22;8085;53.472;9.794;2023-12-07T10:35:47;1.30;99.90
15969;DHT22;8085;53.472;9.794;2023-12-07T10:38:15;1.30;99.90
15969;DHT22;8085;53.472;9.794;2023-12-07T10:40:45;1.30;99.90
15969;DHT22;8085;53.472;9.794;2023-12-07T10:43:15;1.40;99.90
15969;DHT22;8085;53.472;9.794;2023-12-07T10:45:45;1.40;99.90
15969;DHT22;8085;53.472;9.794;2023-12-07T10:48:14;1.40;99.90
15969;DHT22;8085;53.472;9.794;2023-12-07T10:50:42;1.50;99.90
15969;DHT22;8085;53.472;9.794;2023-12-07T10:53:14;1.50;99.90
15969;DHT22;8085;53.472;9.794;2023-12-07T10:55:47;1.50;99.90
15969;DHT22;8085;53.472;9.794;2023-12-07T10:58:16;1.50;99.90
15969;DHT22;8085;53.472;9.794;2023-12-07T11:00:44;1.50;99.90
15969;DHT22;8085;53.472;9.794;2023-12-07T11:03:14;1.60;99.90
15969;DHT22;8085;53.472;9.794;2023-12-07T11:05:43;1.60;99.90
15969;DHT22;8085;53.472;9.794;2023-12-07T11:08:15;1.60;99.90
15969;DHT22;8085;53.472;9.794;2023-12-07T11:10:47;1.60;99.90
15969;DHT22;8085;53.472;9.794;2023-12-07T11:13:22;1.70;99.90
15969;DHT22;8085;53.472;9.794;2023-12-07T11:15:50;1.70;99.90
15969;DHT22;8085;53.472;9.794;2023-12-07T11:18:16;1.70;99.90
15969;DHT22;8085;53.472;9.794;2023-12-07T11:20:45;1.70;99.90
15969;DHT22;8085;53.472;9.794;2023-12-07T11:23:16;1.70;99.90
15969;DHT22;8085;53.472;9.794;2023-12-07T11:25:44;1.80;99.90
15969;DHT22;8085;53.472;9.794;2023-12-07T11:28:11;1.80;99.90
15969;DHT22;8085;53.472;9.794;2023-12-07T11:30:42;1.80;99.90
15969;DHT22;8085;53.472;9.794;2023-12-07T11:33:10;1.80;99.90
15969;DHT22;8085;53.472;9.794;2023-12-07T11:36:05;1.80;99.90
15969;DHT22;8085;53.472;9.794;2023-12-07T11:38:32;1.80;99.90
15969;DHT22;8085;53.472;9.794;2023-12-07T11:40:59;1.80;99.90
15969;DHT22;8085;53.472;9.794;2023-12-07T11:43:45;1.90;99.90
15969;DHT22;8085;53.472;9.794;2023-12-07T11:46:14;1.90;99.90
15969;DHT22;8085;53.472;9.794;2023-12-07T11:48:48;1.90;99.90
15969;DHT22;8085;53.472;9.794;2023-12-07T11:51:16;1.90;99.90
15969;DHT22;8085;53.472;9.794;2023-12-07T11:53:43;1.90;99.90
15969;DHT22;8085;53.472;9.794;2023-12-07T11:56:11;1.90;99.90
15969;DHT22;8085;53.472;9.794;2023-12-07T11:58:39;1.90;99.90
15969;DHT22;8085;53.472;9.794;2023-12-07T12:01:06;1.90;99.90
15969;DHT22;8085;53.472;9.794;2023-12-07T12:03:35;1.90;99.90
15969;DHT22;8085;53.472;9.794;2023-12-07T12:06:04;1.90;99.90
15969;DHT22;8085;53.472;9.794;2023-12-07T12:08:31;2.00;99.90
15969;DHT22;8085;53.472;9.794;2023-12-07T12:10:58;2.00;99.90
15969;DHT22;8085;53.472;9.794;2023-12-07T12:13:27;2.00;99.90
15969;DHT22;8085;53.472;9.794;2023-12-07T12:15:54;2.00;99.90
15969;DHT22;8085;53.472;9.794;2023-12-07T12:18:22;2.00;99.90
15969;DHT22;8085;53.472;9.794;2023-12-07T12:20:52;2.00;99.90
15969;DHT22;8085;53.472;9.794;2023-12-07T12:23:20;2.00;99.90
15969;DHT22;8085;53.472;9.794;2023-12-07T12:25:47;2.00;99.90
15969;DHT22;8085;53.472;9.794;2023-12-07T12:28:16;2.00;99.90
15969;DHT22;8085;53.472;9.794;2023-12-07T12:30:44;2.10;99.90
15969;DHT22;8085;53.472;9.794;2023-12-07T12:33:12;2.10;99.90
15969;DHT22;8085;53.472;9.794;2023-12-07T12:35:39;2.10;99.90
15969;DHT22;8085;53.472;9.794;2023-12-07T12:38:10;2.00;99.90
15969;DHT22;8085;53.472;9.794;2023-12-07T12:40:38;2.10;99.90
15969;DHT22;8085;53.472;9.794;2023-12-07T12:43:07;2.10;99.90
15969;DHT22;8085;53.472;9.794;2023-12-07T12:45:34;2.10;99.90
15969;DHT22;8085;53.472;9.794;2023-12-07T12:48:01;2.10;99.90
15969;DHT22;8085;53.472;9.794;2023-12-07T12:50:36;2.10;99.90
15969;DHT22;8085;53.472;9.794;2023-12-07T12:53:04;2.10;99.90
15969;DHT22;8085;53.472;9.794;2023-12-07T12:55:34;2.10;99.90
15969;DHT22;8085;53.472;9.794;2023-12-07T12:58:01;2.10;99.90
15969;DHT22;8085;53.472;9.794;2023-12-07T13:00:30;2.20;99.90
15969;DHT22;8085;53.472;9.794;2023-12-07T13:02:58;2.20;99.90
15969;DHT22;8085;53.472;9.794;2023-12-07T13:05:25;2.20;99.90
15969;DHT22;8085;53.472;9.794;2023-12-07T13:07:52;2.20;99.90
15969;DHT22;8085;53.472;9.794;2023-12-07T13:10:19;2.20;99.90
15969;DHT22;8085;53.472;9.794;2023-12-07T13:12:47;2.20;99.90
15969;DHT22;8085;53.472;9.794;2023-12-07T13:15:14;2.20;99.90
15969;DHT22;8085;53.472;9.794;2023-12-07T13:17:42;2.20;99.90
15969;DHT22;8085;53.472;9.794;2023-12-07T13:20:10;2.20;99.90
15969;DHT22;8085;53.472;9.794;2023-12-07T13:22:39;2.20;99.90
15969;DHT22;8085;53.472;9.794;2023-12-07T13:25:07;2.20;99.90
15969;DHT22;8085;53.472;9.794;2023-12-07T13:27:33;2.20;99.90
15969;DHT22;8085;53.472;9.794;2023-12-07T13:30:02;2.20;99.90
15969;DHT22;8085;53.472;9.794;2023-12-07T13:32:32;2.20;99.90
15969;DHT22;8085;53.472;9.794;2023-12-07T13:34:59;2.20;99.90
15969;DHT22;8085;53.472;9.794;2023-12-07T13:37:26;2.20;99.90
15969;DHT22;8085;53.472;9.794;2023-12-07T13:39:52;2.20;99.90
15969;DHT22;8085;53.472;9.794;2023-12-07T13:42:23;2.20;99.90
15969;DHT22;8085;53.472;9.794;2023-12-07T13:44:52;2.20;99.90
15969;DHT22;8085;53.472;9.794;2023-12-07T13:47:20;2.10;99.90
15969;DHT22;8085;53.472;9.794;2023-12-07T13:49:50;2.10;99.90
15969;DHT22;8085;53.472;9.794;2023-12-07T13:52:17;2.10;99.90
15969;DHT22;8085;53.472;9.794;2023-12-07T13:54:44;2.10;99.90
15969;DHT22;8085;53.472;9.794;2023-12-07T13:57:11;2.10;99.90
15969;DHT22;8085;53.472;9.794;2023-12-07T13:59:38;2.10;99.90
15969;DHT22;8085;53.472;9.794;2023-12-07T14:02:05;2.10;99.90
15969;DHT22;8085;53.472;9.794;2023-12-07T14:04:33;2.00;99.90
15969;DHT22;8085;53.472;9.794;2023-12-07T14:07:08;2.00;99.90
15969;DHT22;8085;53.472;9.794;2023-12-07T14:09:35;2.00;99.90
15969;DHT22;8085;53.472;9.794;2023-12-07T14:12:03;2.10;99.90
15969;DHT22;8085;53.472;9.794;2023-12-07T14:14:31;2.00;99.90
15969;DHT22;8085;53.472;9.794;2023-12-07T14:16:58;2.00;99.90
15969;DHT22;8085;53.472;9.794;2023-12-07T14:19:24;2.00;99.90
15969;DHT22;8085;53.472;9.794;2023-12-07T14:21:54;2.00;99.90
15969;DHT22;8085;53.472;9.794;2023-12-07T14:24:22;2.00;99.90
15969;DHT22;8085;53.472;9.794;2023-12-07T14:26:49;2.00;99.90
15969;DHT22;8085;53.472;9.794;2023-12-07T14:29:16;2.00;99.90
15969;DHT22;8085;53.472;9.794;2023-12-07T14:31:43;2.00;99.90
15969;DHT22;8085;53.472;9.794;2023-12-07T14:34:10;1.90;99.90
15969;DHT22;8085;53.472;9.794;2023-12-07T14:36:39;1.90;99.90
15969;DHT22;8085;53.472;9.794;2023-12-07T14:39:10;1.90;99.90
15969;DHT22;8085;53.472;9.794;2023-12-07T14:41:43;1.90;99.90
15969;DHT22;8085;53.472;9.794;2023-12-07T14:44:10;1.90;99.90
15969;DHT22;8085;53.472;9.794;2023-12-07T14:46:37;1.90;99.90
15969;DHT22;8085;53.472;9.794;2023-12-07T14:49:04;1.90;99.90
15969;DHT22;8085;53.472;9.794;2023-12-07T14:51:35;1.90;99.90
15969;DHT22;8085;53.472;9.794;2023-12-07T14:54:02;1.80;99.90
15969;DHT22;8085;53.472;9.794;2023-12-07T14:56:30;2.00;99.90
15969;DHT22;8085;53.472;9.794;2023-12-07T14:58:59;1.80;99.90
15969;DHT22;8085;53.472;9.794;2023-12-07T15:01:26;1.80;99.90
15969;DHT22;8085;53.472;9.794;2023-12-07T15:03:53;1.80;99.90
15969;DHT22;8085;53.472;9.794;2023-12-07T15:06:19;1.80;99.90
15969;DHT22;8085;53.472;9.794;2023-12-07T15:08:46;1.70;99.90
15969;DHT22;8085;53.472;9.794;2023-12-07T15:11:14;1.70;99.90
15969;DHT22;8085;53.472;9.794;2023-12-07T15:13:43;1.70;99.90
15969;DHT22;8085;53.472;9.794;2023-12-07T15:16:10;1.70;99.90
15969;DHT22;8085;53.472;9.794;2023-12-07T15:18:37;1.70;99.90
15969;DHT22;8085;53.472;9.794;2023-12-07T15:21:07;1.70;99.90
15969;DHT22;8085;53.472;9.794;2023-12-07T15:23:33;1.70;99.90
15969;DHT22;8085;53.472;9.794;2023-12-07T15:26:00;1.70;99.90
15969;DHT22;8085;53.472;9.794;2023-12-07T15:28:28;1.70;99.90
15969;DHT22;8085;53.472;9.794;2023-12-07T15:30:57;1.70;99.90
15969;DHT22;8085;53.472;9.794;2023-12-07T15:33:23;1.70;99.90
15969;DHT22;8085;53.472;9.794;2023-12-07T15:35:50;1.70;99.90
15969;DHT22;8085;53.472;9.794;2023-12-07T15:38:17;1.70;99.90
15969;DHT22;8085;53.472;9.794;2023-12-07T15:40:44;1.60;99.90
15969;DHT22;8085;53.472;9.794;2023-12-07T15:43:11;1.60;99.90
15969;DHT22;8085;53.472;9.794;2023-12-07T15:45:38;1.60;99.90
15969;DHT22;8085;53.472;9.794;2023-12-07T15:48:08;1.60;99.90
15969;DHT22;8085;53.472;9.794;2023-12-07T15:50:35;1.60;99.90
15969;DHT22;8085;53.472;9.794;2023-12-07T15:53:02;1.60;99.90
15969;DHT22;8085;53.472;9.794;2023-12-07T15:55:29;1.60;99.90
15969;DHT22;8085;53.472;9.794;2023-12-07T15:57:56;1.50;99.90
15969;DHT22;8085;53.472;9.794;2023-12-07T16:00:23;1.50;99.90
15969;DHT22;8085;53.472;9.794;2023-12-07T16:02:50;1.50;99.90
15969;DHT22;8085;53.472;9.794;2023-12-07T16:05:20;1.50;99.90
15969;DHT22;8085;53.472;9.794;2023-12-07T16:07:47;1.50;99.90